Latest Weather Observations for Bougainville Reef

IDQ60801

Issued at 10:02 pm EST Sunday 26 February 2017 (issued every 30 minutes, with the page automatically refreshed every 10 minutes)

About weather observations | Map of weather stations | Latest weather observations for QLD | Other Formats
Station Details ID: 200840 Name: BOUGAINVILLE REEF Lat: -15.49 Lon: 147.12 Height: 0.0 m
Data from the previous 72 hours. | See also: Recent months for locations in Queensland
Date/Time
EST
Temp
°C
App
Temp
°C
Dew
Point
°C
Rel
Hum
%
Delta-T
°C
Wind Press
QNH
hPa
Press
MSL
hPa
Rain since
9am
mm
Dir  Spd
km/h
Gust
km/h
Spd
kts
Gust
kts
26/10:00pm 29.3 - - - - ESE 33 39 18 21 1009.0 1009.1 -
26/09:30pm 28.9 - - - - ESE 35 41 19 22 1008.8 - -
26/09:00pm 28.7 - - - - SE 26 30 14 16 1008.7 1008.7 -
26/08:42pm 28.4 - - - - ESE 32 50 17 27 1008.7 - -
26/08:30pm 28.5 - - - - SE 33 46 18 25 1008.5 - -
26/08:00pm 29.0 - - - - SE 30 35 16 19 1008.2 1008.0 -
26/07:30pm 28.9 - - - - SE 32 37 17 20 1007.8 - -
26/07:00pm 28.9 - - - - SSE 30 37 16 20 1007.7 1007.5 -
26/06:30pm 29.0 - - - - SSE 32 37 17 20 1007.3 - -
26/06:00pm 28.9 - - - - SE 30 35 16 19 1007.2 1007.2 -
26/05:30pm 29.0 - - - - SE 32 35 17 19 1006.9 - -
26/05:00pm 28.8 - - - - SE 33 35 18 19 1006.8 1006.8 -
26/04:30pm 28.9 - - - - SE 33 39 18 21 1006.7 - -
26/04:00pm 29.0 - - - - SE 32 41 17 22 1006.5 1006.6 -
26/03:30pm 29.0 - - - - SE 32 35 17 19 1006.7 - -
26/03:00pm 28.2 - - - - SE 32 33 17 18 1006.9 1006.9 -
26/02:40pm 27.8 - - - - SE 43 48 23 26 1006.9 - -
26/02:30pm 28.7 - - - - SE 24 30 13 16 1007.0 - -
26/02:00pm 29.0 - - - - SE 28 35 15 19 1007.1 1007.1 -
26/01:30pm 28.7 - - - - SSE 24 28 13 15 1007.4 - -
26/01:00pm 29.0 - - - - SE 30 35 16 19 1007.7 1007.9 -
26/12:30pm 29.0 - - - - SE 26 28 14 15 1008.2 - -
26/12:00pm 29.1 - - - - SE 28 33 15 18 1008.4 1008.5 -
26/11:30am 28.9 - - - - SE 26 32 14 17 1008.7 - -
26/11:00am 28.9 - - - - SE 28 32 15 17 1009.0 1009.0 -
26/10:30am 28.9 - - - - SE 30 35 16 19 1008.9 - -
26/10:00am 29.0 - - - - SE 30 35 16 19 1009.1 1009.0 -
26/09:30am 28.9 - - - - SE 30 33 16 18 1009.2 - -
26/09:00am 29.2 - - - - SE 28 32 15 17 1009.5 1009.3 -
26/08:30am 28.9 - - - - SE 26 28 14 15 1009.3 - -
26/08:00am 28.8 - - - - SE 24 28 13 15 1009.2 1009.1 -
26/07:30am 28.8 - - - - SE 26 30 14 16 1008.9 - -
26/07:00am 28.9 - - - - SE 22 32 12 17 1008.4 1008.3 -
26/06:30am 28.8 - - - - SE 24 30 13 16 1008.0 - -
26/06:00am 28.6 - - - - SE 26 33 14 18 1007.5 1007.4 -
26/05:30am 28.7 - - - - ESE 26 30 14 16 1007.1 - -
26/05:00am 28.7 - - - - ESE 28 30 15 16 1007.0 1007.0 -
26/04:30am 28.7 - - - - ESE 30 35 16 19 1006.8 - -
26/04:00am 28.7 - - - - ESE 28 32 15 17 1006.9 1006.9 -
26/03:30am 28.7 - - - - ESE 28 33 15 18 1006.9 - -
26/03:00am 28.7 - - - - ESE 30 32 16 17 1007.2 1007.2 -
26/02:30am 28.6 - - - - ESE 26 30 14 16 1007.3 - -
26/02:00am 28.8 - - - - ESE 28 33 15 18 1007.6 1007.7 -
26/01:30am 28.8 - - - - ESE 30 35 16 19 1008.0 - -
26/01:00am 28.9 - - - - ESE 30 35 16 19 1008.5 1008.6 -
26/12:30am 28.9 - - - - ESE 33 39 18 21 1008.7 - -
26/12:00am 29.1 - - - - ESE 33 37 18 20 1009.0 1009.1 -
 
Date/Time
EST
Temp
°C
App
Temp
°C
Dew
Point
°C
Rel
Hum
%
Delta-T
°C
Wind Press
QNH
hPa
Press
MSL
hPa
Rain since
9am
mm
Dir  Spd
km/h
Gust
km/h
Spd
kts
Gust
kts
25/11:30pm 29.2 - - - - ESE 35 41 19 22 1009.5 - -
25/11:00pm 29.1 - - - - ESE 35 43 19 23 1009.5 1009.5 -
25/10:30pm 29.1 - - - - ESE 35 41 19 22 1009.6 - -
25/10:00pm 29.3 - - - - ESE 37 43 20 23 1009.2 1009.3 -
25/09:30pm 29.2 - - - - ESE 39 44 21 24 1009.2 - -
25/09:00pm 29.2 - - - - ESE 35 41 19 22 1009.3 1009.3 -
25/08:30pm 29.4 - - - - ESE 39 44 21 24 1009.0 - -
25/08:00pm 29.2 - - - - ESE 37 43 20 23 1008.5 1008.4 -
25/07:30pm 29.2 - - - - ESE 39 43 21 23 1008.2 - -
25/07:00pm 29.1 - - - - ESE 35 41 19 22 1007.9 1007.9 -
25/06:30pm 29.2 - - - - ESE 33 39 18 21 1007.6 - -
25/06:00pm 28.1 - - - - E 28 30 15 16 1007.3 1007.2 -
25/05:30pm 27.5 - - - - E 39 46 21 25 1007.0 - -
25/05:18pm 28.0 - - - - E 41 50 22 27 1006.8 - -
25/05:00pm 28.5 - - - - ESE 33 35 18 19 1006.8 1006.7 -
25/04:30pm 28.8 - - - - ESE 33 37 18 20 1006.8 - -
25/04:00pm 29.3 - - - - ESE 30 41 16 22 1007.0 1006.9 -
25/03:30pm 29.5 - - - - ESE 30 33 16 18 1007.2 - -
25/03:00pm 29.2 - - - - ESE 32 35 17 19 1007.3 1007.5 -
25/02:30pm 28.8 - - - - ESE 30 33 16 18 1007.7 - -
25/02:00pm 28.9 - - - - ESE 22 32 12 17 1008.0 1008.0 -
25/01:30pm 28.2 - - - - ESE 26 33 14 18 1008.3 - -
25/01:00pm 29.0 - - - - ESE 24 32 13 17 1008.4 1008.5 -
25/12:30pm 27.4 - - - - SSE 11 30 6 16 1008.8 - -
25/12:00pm 28.9 - - - - ESE 22 28 12 15 1009.2 1009.4 -
25/11:30am 28.7 - - - - ESE 30 35 16 19 1009.8 - -
25/11:00am 29.2 - - - - ESE 26 30 14 16 1010.1 1010.0 -
25/10:30am 29.0 - - - - ESE 24 28 13 15 1010.2 - -
25/10:00am 28.4 - - - - E 22 22 12 12 1010.4 1010.4 -
25/09:30am 27.5 - - - - E 17 20 9 11 1010.5 - -
25/09:12am 25.9 - - - - E 19 37 10 20 1010.6 - -
25/09:00am 28.5 - - - - ESE 15 44 8 24 1010.6 1010.5 -
25/08:57am 27.6 - - - - ESE 37 43 20 23 1010.6 - -
25/08:30am 28.5 - - - - ESE 17 20 9 11 1010.5 - -
25/08:00am 27.8 - - - - E 26 26 14 14 1010.4 1010.1 -
25/07:30am 28.3 - - - - SE 26 32 14 17 1010.1 - -
25/07:00am 28.5 - - - - SE 20 24 11 13 1009.9 1009.8 -
25/06:30am 28.6 - - - - SE 19 22 10 12 1009.7 - -
25/06:00am 28.4 - - - - ESE 17 24 9 13 1009.6 1009.5 -
25/05:30am 28.3 - - - - ESE 17 20 9 11 1009.5 - -
25/05:00am 28.0 - - - - ESE 19 20 10 11 1008.8 1008.8 -
25/04:30am 28.1 - - - - ESE 20 24 11 13 1008.9 - -
25/04:00am 28.0 - - - - ESE 28 30 15 16 1008.6 1008.6 -
25/03:30am 28.4 - - - - ESE 24 26 13 14 1008.8 - -
25/03:00am 28.0 - - - - SE 22 26 12 14 1008.9 1008.7 -
25/02:30am 28.3 - - - - E 24 28 13 15 1008.5 - -
25/02:00am 28.5 - - - - SE 19 28 10 15 1008.7 1008.9 -
25/01:30am 28.6 - - - - SE 19 24 10 13 1009.0 - -
25/01:00am 28.8 - - - - SE 15 20 8 11 1009.7 1009.7 -
25/12:30am 28.7 - - - - ESE 19 20 10 11 1010.1 - -
25/12:00am 28.4 - - - - ESE 20 24 11 13 1010.5 1010.5 -
 
Date/Time
EST
Temp
°C
App
Temp
°C
Dew
Point
°C
Rel
Hum
%
Delta-T
°C
Wind Press
QNH
hPa
Press
MSL
hPa
Rain since
9am
mm
Dir  Spd
km/h
Gust
km/h
Spd
kts
Gust
kts
24/11:30pm 28.7 - - - - ESE 22 26 12 14 1010.8 - -
24/11:00pm 28.4 - - - - ESE 19 22 10 12 1011.1 1011.1 -
24/10:30pm 28.5 - - - - ESE 22 26 12 14 1011.2 - -
24/10:00pm 28.6 - - - - ESE 22 28 12 15 1011.0 1010.9 -
24/09:30pm 28.3 - - - - ESE 24 28 13 15 1010.9 - -
24/09:00pm 27.9 - - - - ESE 32 33 17 18 1010.5 1010.4 -
24/08:30pm 27.9 - - - - ESE 30 35 16 19 1010.5 - -
24/08:00pm 28.3 - - - - SE 33 44 18 24 1010.3 1010.0 -
24/07:30pm 28.9 - - - - SE 24 28 13 15 1009.7 - -
24/07:00pm 28.6 - - - - SE 26 30 14 16 1009.9 1009.8 -
24/06:30pm 28.5 - - - - SE 24 30 13 16 1009.5 - -
24/06:00pm 28.7 - - - - SE 24 32 13 17 1009.1 1009.0 -
24/05:30pm 28.5 - - - - SE 22 26 12 14 1009.0 - -
24/05:00pm 28.8 - - - - ESE 24 28 13 15 1008.9 1008.9 -
24/04:30pm 28.6 - - - - ESE 24 30 13 16 1008.7 - -
24/04:00pm 28.5 - - - - SE 30 32 16 17 1008.8 1008.8 -
24/03:30pm 29.2 - - - - ESE 22 26 12 14 1008.8 - -
24/03:00pm 28.8 - - - - ESE 20 24 11 13 1009.1 1009.1 -
24/02:30pm 28.5 - - - - SE 22 26 12 14 1009.2 - -
24/02:00pm 29.4 - - - - E 20 32 11 17 1009.3 1009.4 -
24/01:30pm 29.1 - - - - E 22 24 12 13 1009.7 - -
24/01:00pm 29.2 - - - - E 20 28 11 15 1010.0 1010.1 -
24/12:30pm 28.8 - - - - E 13 15 7 8 1010.5 - -
24/12:00pm 26.8 - - - - NNE 33 24 18 13 1011.2 1011.4 -
24/11:52am 27.0 - - - - NNE 20 46 11 25 1011.4 - -
24/11:43am 26.5 - - - - NE 41 54 22 29 1011.4 - -
24/11:37am 26.8 - - - - E 44 54 24 29 1011.3 - -
24/11:36am 27.8 - - - - ESE 28 52 15 28 1011.5 - -
24/11:30am 29.0 - - - - ESE 22 26 12 14 1011.6 - -
24/11:00am 29.4 - - - - E 24 26 13 14 1011.7 1011.7 -
24/10:30am 29.6 - - - - E 26 30 14 16 1011.9 - -
24/10:00am 29.2 - - - - E 26 30 14 16 1012.1 1012.1 -
24/09:30am 29.5 - - - - E 26 32 14 17 1012.2 - -
24/09:00am 29.1 - - - - E 26 28 14 15 1012.3 1012.1 -
24/08:30am 29.2 - - - - E 28 32 15 17 1012.0 - -
24/08:00am 29.0 - - - - E 33 35 18 19 1011.9 1011.6 -
24/07:30am 29.0 - - - - ESE 33 37 18 20 1011.5 - -
24/07:00am 28.4 - - - - ESE 33 41 18 22 1010.9 1010.7 -
24/06:30am 28.8 - - - - E 33 39 18 21 1010.4 - -
24/06:00am 28.7 - - - - E 30 35 16 19 1010.2 1010.1 -
24/05:30am 28.5 - - - - ESE 33 37 18 20 1010.1 - -
24/05:00am 28.6 - - - - E 33 33 18 18 1009.9 1009.7 -
24/04:30am 28.3 - - - - ESE 30 44 16 24 1009.7 - -
24/04:00am 28.8 - - - - ESE 32 35 17 19 1009.8 1009.8 -
24/03:30am 28.1 - - - - E 22 26 12 14 1009.8 - -
24/03:00am 28.5 - - - - ESE 22 52 12 28 1010.0 1010.0 -
24/02:56am 27.9 - - - - ESE 32 50 17 27 1010.0 - -
24/02:30am 27.8 - - - - ESE 30 44 16 24 1010.1 - -
24/02:00am 29.0 - - - - ESE 22 28 12 15 1010.4 1010.5 -
24/01:30am 29.0 - - - - ESE 26 30 14 16 1010.9 - -
24/01:00am 28.8 - - - - ESE 28 32 15 17 1011.3 1011.4 -
24/12:30am 28.9 - - - - ESE 22 26 12 14 1011.5 - -
24/12:00am 28.8 - - - - ESE 32 30 17 16 1011.7 1011.5 -
 
Date/Time
EST
Temp
°C
App
Temp
°C
Dew
Point
°C
Rel
Hum
%
Delta-T
°C
Wind Press
QNH
hPa
Press
MSL
hPa
Rain since
9am
mm
Dir  Spd
km/h
Gust
km/h
Spd
kts
Gust
kts
23/11:30pm 29.0 - - - - SE 26 30 14 16 1011.6 - -
23/11:00pm 29.0 - - - - SE 28 32 15 17 1011.8 1011.8 -
23/10:30pm 29.0 - - - - SE 28 32 15 17 1012.1 - -

Other Formats:

Comma delimited format used in spreadsheet applications
http://www.bom.gov.au/fwo/IDQ60801/IDQ60801.95288.axf

JavaScript Object Notation format (JSON) in row-major order
http://www.bom.gov.au/fwo/IDQ60801/IDQ60801.95288.json